sensor_id;sensor_type;location;lat;lon;timestamp;P1;durP1;ratioP1;P2;durP2;ratioP2
51382;SDS011;37475;43.358;1.248;2023-04-03T00:01:15;9.05;;;3.30;;
51382;SDS011;37475;43.358;1.248;2023-04-03T00:03:42;6.88;;;3.03;;
51382;SDS011;37475;43.358;1.248;2023-04-03T00:06:08;7.75;;;3.08;;
51382;SDS011;37475;43.358;1.248;2023-04-03T00:08:36;9.30;;;3.25;;
51382;SDS011;37475;43.358;1.248;2023-04-03T00:11:03;8.60;;;3.20;;
51382;SDS011;37475;43.358;1.248;2023-04-03T00:13:30;6.32;;;3.08;;
51382;SDS011;37475;43.358;1.248;2023-04-03T00:15:57;11.70;;;2.83;;
51382;SDS011;37475;43.358;1.248;2023-04-03T00:18:23;8.27;;;2.80;;
51382;SDS011;37475;43.358;1.248;2023-04-03T00:20:49;6.97;;;3.00;;
51382;SDS011;37475;43.358;1.248;2023-04-03T00:23:15;8.40;;;3.55;;
51382;SDS011;37475;43.358;1.248;2023-04-03T00:25:41;9.30;;;3.10;;
51382;SDS011;37475;43.358;1.248;2023-04-03T00:28:07;11.02;;;3.40;;
51382;SDS011;37475;43.358;1.248;2023-04-03T00:30:34;5.45;;;3.03;;
51382;SDS011;37475;43.358;1.248;2023-04-03T00:33:00;7.05;;;3.05;;
51382;SDS011;37475;43.358;1.248;2023-04-03T00:35:26;6.30;;;3.10;;
51382;SDS011;37475;43.358;1.248;2023-04-03T00:37:53;8.32;;;3.60;;
51382;SDS011;37475;43.358;1.248;2023-04-03T00:40:20;8.63;;;2.85;;
51382;SDS011;37475;43.358;1.248;2023-04-03T00:42:51;3.78;;;2.10;;
51382;SDS011;37475;43.358;1.248;2023-04-03T00:45:26;7.35;;;3.25;;
51382;SDS011;37475;43.358;1.248;2023-04-03T00:48:03;9.95;;;3.92;;
51382;SDS011;37475;43.358;1.248;2023-04-03T00:50:32;6.93;;;2.83;;
51382;SDS011;37475;43.358;1.248;2023-04-03T00:53:03;8.52;;;3.35;;
51382;SDS011;37475;43.358;1.248;2023-04-03T00:55:31;6.05;;;3.20;;
51382;SDS011;37475;43.358;1.248;2023-04-03T00:57:59;8.02;;;3.35;;
51382;SDS011;37475;43.358;1.248;2023-04-03T01:00:27;9.65;;;3.70;;
51382;SDS011;37475;43.358;1.248;2023-04-03T01:02:53;9.75;;;3.58;;
51382;SDS011;37475;43.358;1.248;2023-04-03T01:05:19;8.32;;;4.07;;
51382;SDS011;37475;43.358;1.248;2023-04-03T01:07:46;8.40;;;3.55;;
51382;SDS011;37475;43.358;1.248;2023-04-03T01:10:15;7.22;;;3.42;;
51382;SDS011;37475;43.358;1.248;2023-04-03T01:12:43;8.45;;;3.67;;
51382;SDS011;37475;43.358;1.248;2023-04-03T01:15:21;10.70;;;3.90;;
51382;SDS011;37475;43.358;1.248;2023-04-03T01:17:55;9.75;;;3.72;;
51382;SDS011;37475;43.358;1.248;2023-04-03T01:25:39;6.78;;;3.28;;
51382;SDS011;37475;43.358;1.248;2023-04-03T01:28:13;6.70;;;3.42;;
51382;SDS011;37475;43.358;1.248;2023-04-03T01:31:02;8.82;;;3.47;;
51382;SDS011;37475;43.358;1.248;2023-04-03T01:33:33;7.75;;;3.50;;
51382;SDS011;37475;43.358;1.248;2023-04-03T01:36:00;8.27;;;3.20;;
51382;SDS011;37475;43.358;1.248;2023-04-03T01:38:27;8.32;;;3.38;;
51382;SDS011;37475;43.358;1.248;2023-04-03T01:40:53;6.95;;;3.08;;
51382;SDS011;37475;43.358;1.248;2023-04-03T01:43:18;7.25;;;3.67;;
51382;SDS011;37475;43.358;1.248;2023-04-03T01:45:44;8.25;;;3.42;;
51382;SDS011;37475;43.358;1.248;2023-04-03T01:48:11;9.30;;;3.17;;
51382;SDS011;37475;43.358;1.248;2023-04-03T01:50:38;9.48;;;3.38;;
51382;SDS011;37475;43.358;1.248;2023-04-03T01:53:04;8.95;;;3.55;;
51382;SDS011;37475;43.358;1.248;2023-04-03T01:55:30;9.95;;;3.50;;
51382;SDS011;37475;43.358;1.248;2023-04-03T01:57:56;13.00;;;4.15;;
51382;SDS011;37475;43.358;1.248;2023-04-03T02:00:21;6.65;;;3.25;;
51382;SDS011;37475;43.358;1.248;2023-04-03T02:02:47;6.40;;;2.90;;
51382;SDS011;37475;43.358;1.248;2023-04-03T02:05:13;10.32;;;3.47;;
51382;SDS011;37475;43.358;1.248;2023-04-03T02:07:39;6.93;;;3.63;;
51382;SDS011;37475;43.358;1.248;2023-04-03T02:10:05;7.82;;;3.17;;
51382;SDS011;37475;43.358;1.248;2023-04-03T02:12:31;12.50;;;4.30;;
51382;SDS011;37475;43.358;1.248;2023-04-03T02:14:57;11.07;;;3.33;;
51382;SDS011;37475;43.358;1.248;2023-04-03T02:17:23;8.32;;;3.47;;
51382;SDS011;37475;43.358;1.248;2023-04-03T02:19:48;8.27;;;2.97;;
51382;SDS011;37475;43.358;1.248;2023-04-03T02:22:14;12.25;;;3.45;;
51382;SDS011;37475;43.358;1.248;2023-04-03T02:24:40;9.77;;;3.33;;
51382;SDS011;37475;43.358;1.248;2023-04-03T02:27:06;10.15;;;3.83;;
51382;SDS011;37475;43.358;1.248;2023-04-03T02:29:32;10.10;;;3.55;;
51382;SDS011;37475;43.358;1.248;2023-04-03T02:31:58;7.68;;;3.70;;
51382;SDS011;37475;43.358;1.248;2023-04-03T02:34:24;7.72;;;3.08;;
51382;SDS011;37475;43.358;1.248;2023-04-03T02:36:49;10.75;;;4.13;;
51382;SDS011;37475;43.358;1.248;2023-04-03T02:39:15;7.25;;;3.65;;
51382;SDS011;37475;43.358;1.248;2023-04-03T02:41:41;8.00;;;4.18;;
51382;SDS011;37475;43.358;1.248;2023-04-03T02:44:09;13.68;;;3.80;;
51382;SDS011;37475;43.358;1.248;2023-04-03T02:46:35;10.48;;;3.95;;
51382;SDS011;37475;43.358;1.248;2023-04-03T02:49:01;8.98;;;4.45;;
51382;SDS011;37475;43.358;1.248;2023-04-03T02:51:27;10.23;;;4.20;;
51382;SDS011;37475;43.358;1.248;2023-04-03T02:53:53;11.05;;;4.63;;
51382;SDS011;37475;43.358;1.248;2023-04-03T02:56:19;9.88;;;4.07;;
51382;SDS011;37475;43.358;1.248;2023-04-03T02:58:45;8.73;;;3.97;;
51382;SDS011;37475;43.358;1.248;2023-04-03T03:01:11;8.52;;;3.88;;
51382;SDS011;37475;43.358;1.248;2023-04-03T03:03:38;10.85;;;4.10;;
51382;SDS011;37475;43.358;1.248;2023-04-03T03:08:35;11.90;;;4.28;;
51382;SDS011;37475;43.358;1.248;2023-04-03T03:11:02;10.05;;;4.32;;
51382;SDS011;37475;43.358;1.248;2023-04-03T03:13:28;8.63;;;4.53;;
51382;SDS011;37475;43.358;1.248;2023-04-03T03:15:55;10.27;;;3.85;;
51382;SDS011;37475;43.358;1.248;2023-04-03T03:18:21;9.02;;;3.67;;
51382;SDS011;37475;43.358;1.248;2023-04-03T03:20:54;10.20;;;4.63;;
51382;SDS011;37475;43.358;1.248;2023-04-03T03:23:23;8.88;;;3.80;;
51382;SDS011;37475;43.358;1.248;2023-04-03T03:25:54;13.57;;;4.10;;
51382;SDS011;37475;43.358;1.248;2023-04-03T03:28:25;8.00;;;3.63;;
51382;SDS011;37475;43.358;1.248;2023-04-03T03:30:52;8.77;;;3.50;;
51382;SDS011;37475;43.358;1.248;2023-04-03T03:33:18;8.70;;;4.38;;
51382;SDS011;37475;43.358;1.248;2023-04-03T03:35:44;9.55;;;3.90;;
51382;SDS011;37475;43.358;1.248;2023-04-03T03:38:10;14.07;;;4.57;;
51382;SDS011;37475;43.358;1.248;2023-04-03T03:40:36;11.23;;;4.30;;
51382;SDS011;37475;43.358;1.248;2023-04-03T03:43:02;10.93;;;4.07;;
51382;SDS011;37475;43.358;1.248;2023-04-03T03:45:28;11.02;;;4.40;;
51382;SDS011;37475;43.358;1.248;2023-04-03T03:47:54;12.95;;;4.70;;
51382;SDS011;37475;43.358;1.248;2023-04-03T03:50:20;10.00;;;3.88;;
51382;SDS011;37475;43.358;1.248;2023-04-03T03:52:45;10.57;;;4.40;;
51382;SDS011;37475;43.358;1.248;2023-04-03T03:55:11;10.25;;;4.45;;
51382;SDS011;37475;43.358;1.248;2023-04-03T03:57:38;9.02;;;3.72;;
51382;SDS011;37475;43.358;1.248;2023-04-03T04:00:04;11.95;;;4.55;;
51382;SDS011;37475;43.358;1.248;2023-04-03T04:02:32;11.35;;;4.47;;
51382;SDS011;37475;43.358;1.248;2023-04-03T04:04:58;12.02;;;4.50;;
51382;SDS011;37475;43.358;1.248;2023-04-03T04:07:24;9.40;;;4.47;;
51382;SDS011;37475;43.358;1.248;2023-04-03T04:09:52;12.43;;;4.43;;
51382;SDS011;37475;43.358;1.248;2023-04-03T04:12:19;12.65;;;4.72;;
51382;SDS011;37475;43.358;1.248;2023-04-03T04:14:45;8.35;;;3.47;;
51382;SDS011;37475;43.358;1.248;2023-04-03T04:17:12;9.45;;;4.18;;
51382;SDS011;37475;43.358;1.248;2023-04-03T04:19:41;7.90;;;3.67;;
51382;SDS011;37475;43.358;1.248;2023-04-03T04:22:06;9.52;;;4.18;;
51382;SDS011;37475;43.358;1.248;2023-04-03T04:24:32;10.55;;;4.05;;
51382;SDS011;37475;43.358;1.248;2023-04-03T04:26:58;9.80;;;4.68;;
51382;SDS011;37475;43.358;1.248;2023-04-03T04:29:24;8.93;;;3.95;;
51382;SDS011;37475;43.358;1.248;2023-04-03T04:31:50;14.65;;;4.25;;
51382;SDS011;37475;43.358;1.248;2023-04-03T04:34:16;9.82;;;4.10;;
51382;SDS011;37475;43.358;1.248;2023-04-03T04:36:41;13.85;;;4.03;;
51382;SDS011;37475;43.358;1.248;2023-04-03T04:39:07;9.80;;;3.65;;
51382;SDS011;37475;43.358;1.248;2023-04-03T04:41:33;10.27;;;4.60;;
51382;SDS011;37475;43.358;1.248;2023-04-03T04:43:59;10.05;;;4.35;;
51382;SDS011;37475;43.358;1.248;2023-04-03T04:46:25;11.13;;;4.70;;
51382;SDS011;37475;43.358;1.248;2023-04-03T04:48:51;10.27;;;4.13;;
51382;SDS011;37475;43.358;1.248;2023-04-03T04:51:17;9.85;;;3.97;;
51382;SDS011;37475;43.358;1.248;2023-04-03T04:53:43;8.48;;;4.20;;
51382;SDS011;37475;43.358;1.248;2023-04-03T04:56:10;11.40;;;4.15;;
51382;SDS011;37475;43.358;1.248;2023-04-03T04:58:36;7.78;;;4.00;;
51382;SDS011;37475;43.358;1.248;2023-04-03T05:01:02;10.90;;;4.30;;
51382;SDS011;37475;43.358;1.248;2023-04-03T05:03:33;8.95;;;3.97;;
51382;SDS011;37475;43.358;1.248;2023-04-03T05:06:00;9.55;;;3.83;;
51382;SDS011;37475;43.358;1.248;2023-04-03T05:08:25;5.53;;;3.30;;
51382;SDS011;37475;43.358;1.248;2023-04-03T05:10:52;7.82;;;3.30;;
51382;SDS011;37475;43.358;1.248;2023-04-03T05:13:18;8.55;;;3.60;;
51382;SDS011;37475;43.358;1.248;2023-04-03T05:15:45;9.65;;;3.17;;
51382;SDS011;37475;43.358;1.248;2023-04-03T05:18:11;12.38;;;3.60;;
51382;SDS011;37475;43.358;1.248;2023-04-03T05:20:38;7.38;;;3.72;;
51382;SDS011;37475;43.358;1.248;2023-04-03T05:23:04;9.35;;;3.53;;
51382;SDS011;37475;43.358;1.248;2023-04-03T05:25:30;7.45;;;3.20;;
51382;SDS011;37475;43.358;1.248;2023-04-03T05:27:56;7.45;;;3.60;;
51382;SDS011;37475;43.358;1.248;2023-04-03T05:30:22;8.77;;;3.22;;
51382;SDS011;37475;43.358;1.248;2023-04-03T05:32:48;7.80;;;3.90;;
51382;SDS011;37475;43.358;1.248;2023-04-03T05:35:14;6.55;;;3.03;;
51382;SDS011;37475;43.358;1.248;2023-04-03T05:37:40;8.13;;;3.75;;
51382;SDS011;37475;43.358;1.248;2023-04-03T05:40:06;8.82;;;3.60;;
51382;SDS011;37475;43.358;1.248;2023-04-03T05:42:33;9.80;;;3.75;;
51382;SDS011;37475;43.358;1.248;2023-04-03T05:44:59;7.95;;;2.72;;
51382;SDS011;37475;43.358;1.248;2023-04-03T05:47:25;6.68;;;3.95;;
51382;SDS011;37475;43.358;1.248;2023-04-03T05:49:51;10.50;;;4.07;;
51382;SDS011;37475;43.358;1.248;2023-04-03T05:52:21;11.57;;;3.90;;
51382;SDS011;37475;43.358;1.248;2023-04-03T05:55:00;6.15;;;3.45;;
51382;SDS011;37475;43.358;1.248;2023-04-03T05:57:26;11.10;;;3.88;;
51382;SDS011;37475;43.358;1.248;2023-04-03T05:59:52;9.88;;;3.70;;
51382;SDS011;37475;43.358;1.248;2023-04-03T06:02:19;7.82;;;4.00;;
51382;SDS011;37475;43.358;1.248;2023-04-03T06:04:49;8.07;;;3.97;;
51382;SDS011;37475;43.358;1.248;2023-04-03T06:07:17;9.65;;;3.53;;
51382;SDS011;37475;43.358;1.248;2023-04-03T06:09:47;10.25;;;4.05;;
51382;SDS011;37475;43.358;1.248;2023-04-03T06:12:14;12.90;;;4.28;;
51382;SDS011;37475;43.358;1.248;2023-04-03T06:14:40;7.28;;;3.60;;
51382;SDS011;37475;43.358;1.248;2023-04-03T06:17:06;9.48;;;4.47;;
51382;SDS011;37475;43.358;1.248;2023-04-03T06:19:33;10.27;;;4.32;;
51382;SDS011;37475;43.358;1.248;2023-04-03T06:22:00;11.88;;;4.07;;
51382;SDS011;37475;43.358;1.248;2023-04-03T06:24:28;7.85;;;4.20;;
51382;SDS011;37475;43.358;1.248;2023-04-03T06:26:55;9.43;;;4.13;;
51382;SDS011;37475;43.358;1.248;2023-04-03T06:29:22;10.68;;;4.55;;
51382;SDS011;37475;43.358;1.248;2023-04-03T06:31:49;10.50;;;4.30;;
51382;SDS011;37475;43.358;1.248;2023-04-03T06:34:16;12.20;;;4.72;;
51382;SDS011;37475;43.358;1.248;2023-04-03T06:36:43;10.82;;;4.63;;
51382;SDS011;37475;43.358;1.248;2023-04-03T06:39:13;10.50;;;4.63;;
51382;SDS011;37475;43.358;1.248;2023-04-03T06:41:43;11.27;;;5.60;;
51382;SDS011;37475;43.358;1.248;2023-04-03T06:44:09;9.90;;;4.80;;
51382;SDS011;37475;43.358;1.248;2023-04-03T06:46:37;10.25;;;5.38;;
51382;SDS011;37475;43.358;1.248;2023-04-03T06:49:04;9.23;;;4.97;;
51382;SDS011;37475;43.358;1.248;2023-04-03T06:51:33;9.02;;;5.00;;
51382;SDS011;37475;43.358;1.248;2023-04-03T06:54:00;8.68;;;4.72;;
51382;SDS011;37475;43.358;1.248;2023-04-03T06:56:27;7.65;;;4.50;;
51382;SDS011;37475;43.358;1.248;2023-04-03T06:58:54;7.85;;;4.72;;
51382;SDS011;37475;43.358;1.248;2023-04-03T07:01:23;9.45;;;5.18;;
51382;SDS011;37475;43.358;1.248;2023-04-03T07:03:52;8.70;;;4.60;;
51382;SDS011;37475;43.358;1.248;2023-04-03T07:06:18;7.30;;;5.22;;
51382;SDS011;37475;43.358;1.248;2023-04-03T07:08:44;8.65;;;5.05;;
51382;SDS011;37475;43.358;1.248;2023-04-03T07:11:11;8.55;;;4.78;;
51382;SDS011;37475;43.358;1.248;2023-04-03T07:13:38;10.25;;;5.00;;
51382;SDS011;37475;43.358;1.248;2023-04-03T07:16:04;8.40;;;4.50;;
51382;SDS011;37475;43.358;1.248;2023-04-03T07:18:34;8.70;;;4.35;;
51382;SDS011;37475;43.358;1.248;2023-04-03T07:21:00;6.65;;;4.43;;
51382;SDS011;37475;43.358;1.248;2023-04-03T07:23:27;9.07;;;4.57;;
51382;SDS011;37475;43.358;1.248;2023-04-03T07:25:53;8.20;;;4.57;;
51382;SDS011;37475;43.358;1.248;2023-04-03T07:28:20;9.35;;;4.38;;
51382;SDS011;37475;43.358;1.248;2023-04-03T07:30:51;7.70;;;4.70;;
51382;SDS011;37475;43.358;1.248;2023-04-03T07:33:24;8.88;;;4.50;;
51382;SDS011;37475;43.358;1.248;2023-04-03T07:35:50;10.20;;;4.30;;
51382;SDS011;37475;43.358;1.248;2023-04-03T07:38:16;7.35;;;3.90;;
51382;SDS011;37475;43.358;1.248;2023-04-03T07:40:49;9.13;;;4.13;;
51382;SDS011;37475;43.358;1.248;2023-04-03T07:43:17;10.40;;;3.70;;
51382;SDS011;37475;43.358;1.248;2023-04-03T07:45:45;11.30;;;3.60;;
51382;SDS011;37475;43.358;1.248;2023-04-03T07:48:14;8.77;;;3.80;;
51382;SDS011;37475;43.358;1.248;2023-04-03T07:50:42;8.98;;;3.80;;
51382;SDS011;37475;43.358;1.248;2023-04-03T07:53:08;6.93;;;3.40;;
51382;SDS011;37475;43.358;1.248;2023-04-03T07:55:34;9.43;;;3.42;;
51382;SDS011;37475;43.358;1.248;2023-04-03T07:58:07;8.35;;;3.85;;
51382;SDS011;37475;43.358;1.248;2023-04-03T08:00:38;7.00;;;3.53;;
51382;SDS011;37475;43.358;1.248;2023-04-03T08:03:05;7.85;;;3.60;;
51382;SDS011;37475;43.358;1.248;2023-04-03T08:05:36;8.25;;;3.80;;
51382;SDS011;37475;43.358;1.248;2023-04-03T08:08:03;9.30;;;3.30;;
51382;SDS011;37475;43.358;1.248;2023-04-03T08:10:30;7.63;;;3.60;;
51382;SDS011;37475;43.358;1.248;2023-04-03T08:12:56;8.57;;;3.88;;
51382;SDS011;37475;43.358;1.248;2023-04-03T08:15:22;8.95;;;3.78;;
51382;SDS011;37475;43.358;1.248;2023-04-03T08:17:48;10.15;;;3.42;;
51382;SDS011;37475;43.358;1.248;2023-04-03T08:20:15;8.50;;;3.40;;
51382;SDS011;37475;43.358;1.248;2023-04-03T08:22:41;9.95;;;3.33;;
51382;SDS011;37475;43.358;1.248;2023-04-03T08:25:07;8.30;;;3.53;;
51382;SDS011;37475;43.358;1.248;2023-04-03T08:27:33;7.10;;;3.45;;
51382;SDS011;37475;43.358;1.248;2023-04-03T08:30:00;10.65;;;3.40;;
51382;SDS011;37475;43.358;1.248;2023-04-03T08:32:26;6.30;;;3.63;;
51382;SDS011;37475;43.358;1.248;2023-04-03T08:34:52;7.05;;;3.80;;
51382;SDS011;37475;43.358;1.248;2023-04-03T08:37:18;5.47;;;3.45;;
51382;SDS011;37475;43.358;1.248;2023-04-03T08:39:44;6.63;;;3.47;;
51382;SDS011;37475;43.358;1.248;2023-04-03T08:45:50;8.60;;;3.50;;
51382;SDS011;37475;43.358;1.248;2023-04-03T08:48:26;5.85;;;3.45;;
51382;SDS011;37475;43.358;1.248;2023-04-03T08:50:59;8.85;;;3.20;;
51382;SDS011;37475;43.358;1.248;2023-04-03T08:53:32;5.68;;;3.17;;
51382;SDS011;37475;43.358;1.248;2023-04-03T08:56:05;6.57;;;3.00;;
51382;SDS011;37475;43.358;1.248;2023-04-03T08:58:42;7.00;;;2.90;;
51382;SDS011;37475;43.358;1.248;2023-04-03T09:01:33;11.07;;;3.53;;
51382;SDS011;37475;43.358;1.248;2023-04-03T09:04:03;5.15;;;3.30;;
51382;SDS011;37475;43.358;1.248;2023-04-03T09:06:37;6.25;;;3.03;;
51382;SDS011;37475;43.358;1.248;2023-04-03T09:09:12;5.80;;;3.15;;
51382;SDS011;37475;43.358;1.248;2023-04-03T09:13:04;5.47;;;3.30;;
51382;SDS011;37475;43.358;1.248;2023-04-03T09:17:59;6.03;;;3.20;;
51382;SDS011;37475;43.358;1.248;2023-04-03T09:20:55;9.67;;;3.63;;
51382;SDS011;37475;43.358;1.248;2023-04-03T09:23:49;6.65;;;2.67;;
51382;SDS011;37475;43.358;1.248;2023-04-03T09:26:18;5.97;;;2.60;;
51382;SDS011;37475;43.358;1.248;2023-04-03T09:28:57;8.48;;;3.63;;
51382;SDS011;37475;43.358;1.248;2023-04-03T09:31:29;6.30;;;3.13;;
51382;SDS011;37475;43.358;1.248;2023-04-03T09:34:05;5.72;;;3.08;;
51382;SDS011;37475;43.358;1.248;2023-04-03T09:36:53;5.65;;;2.80;;
51382;SDS011;37475;43.358;1.248;2023-04-03T09:39:22;6.88;;;2.70;;
51382;SDS011;37475;43.358;1.248;2023-04-03T09:42:05;6.47;;;3.00;;
51382;SDS011;37475;43.358;1.248;2023-04-03T09:44:44;6.38;;;3.30;;
51382;SDS011;37475;43.358;1.248;2023-04-03T09:47:27;6.83;;;3.00;;
51382;SDS011;37475;43.358;1.248;2023-04-03T09:52:39;6.55;;;2.53;;
51382;SDS011;37475;43.358;1.248;2023-04-03T09:55:08;4.88;;;2.88;;
51382;SDS011;37475;43.358;1.248;2023-04-03T09:57:47;6.07;;;2.55;;
51382;SDS011;37475;43.358;1.248;2023-04-03T10:02:59;4.88;;;2.47;;
51382;SDS011;37475;43.358;1.248;2023-04-03T10:10:38;7.65;;;2.25;;
51382;SDS011;37475;43.358;1.248;2023-04-03T10:13:54;5.57;;;2.17;;
51382;SDS011;37475;43.358;1.248;2023-04-03T10:19:20;5.53;;;2.17;;
51382;SDS011;37475;43.358;1.248;2023-04-03T10:31:24;3.88;;;1.70;;
51382;SDS011;37475;43.358;1.248;2023-04-03T10:33:45;3.95;;;1.95;;
51382;SDS011;37475;43.358;1.248;2023-04-03T10:36:33;3.95;;;2.10;;
51382;SDS011;37475;43.358;1.248;2023-04-03T10:39:27;5.43;;;2.45;;
51382;SDS011;37475;43.358;1.248;2023-04-03T10:59:16;3.47;;;1.80;;
51382;SDS011;37475;43.358;1.248;2023-04-03T11:01:54;4.18;;;1.90;;
51382;SDS011;37475;43.358;1.248;2023-04-03T11:04:26;3.33;;;1.90;;
51382;SDS011;37475;43.358;1.248;2023-04-03T11:07:01;4.93;;;2.00;;
51382;SDS011;37475;43.358;1.248;2023-04-03T11:09:35;3.20;;;1.85;;
51382;SDS011;37475;43.358;1.248;2023-04-03T11:15:00;4.45;;;1.92;;
51382;SDS011;37475;43.358;1.248;2023-04-03T11:17:39;4.47;;;1.88;;
51382;SDS011;37475;43.358;1.248;2023-04-03T11:20:31;5.88;;;1.80;;
51382;SDS011;37475;43.358;1.248;2023-04-03T11:25:51;4.18;;;1.77;;
51382;SDS011;37475;43.358;1.248;2023-04-03T11:28:24;3.42;;;1.60;;
51382;SDS011;37475;43.358;1.248;2023-04-03T11:36:43;5.28;;;1.83;;
51382;SDS011;37475;43.358;1.248;2023-04-03T11:39:36;6.10;;;1.80;;
51382;SDS011;37475;43.358;1.248;2023-04-03T11:44:46;4.78;;;1.45;;
51382;SDS011;37475;43.358;1.248;2023-04-03T11:47:12;3.50;;;1.60;;
51382;SDS011;37475;43.358;1.248;2023-04-03T11:55:57;3.80;;;1.50;;
51382;SDS011;37475;43.358;1.248;2023-04-03T11:58:26;4.13;;;1.70;;
51382;SDS011;37475;43.358;1.248;2023-04-03T12:00:56;2.75;;;1.35;;
51382;SDS011;37475;43.358;1.248;2023-04-03T12:13:39;2.33;;;1.30;;
51382;SDS011;37475;43.358;1.248;2023-04-03T12:16:33;3.35;;;1.50;;
51382;SDS011;37475;43.358;1.248;2023-04-03T12:24:28;2.70;;;1.30;;
51382;SDS011;37475;43.358;1.248;2023-04-03T12:29:24;2.30;;;0.90;;
51382;SDS011;37475;43.358;1.248;2023-04-03T12:35:57;3.33;;;0.98;;
51382;SDS011;37475;43.358;1.248;2023-04-03T12:46:46;4.18;;;1.10;;
51382;SDS011;37475;43.358;1.248;2023-04-03T12:49:31;1.52;;;0.80;;
51382;SDS011;37475;43.358;1.248;2023-04-03T12:52:04;1.67;;;0.90;;
51382;SDS011;37475;43.358;1.248;2023-04-03T12:54:42;3.60;;;1.00;;
51382;SDS011;37475;43.358;1.248;2023-04-03T12:57:17;1.83;;;0.90;;
51382;SDS011;37475;43.358;1.248;2023-04-03T12:59:52;1.75;;;0.98;;
51382;SDS011;37475;43.358;1.248;2023-04-03T13:02:25;1.27;;;0.70;;
51382;SDS011;37475;43.358;1.248;2023-04-03T13:04:58;1.40;;;0.70;;
51382;SDS011;37475;43.358;1.248;2023-04-03T13:07:35;1.25;;;0.70;;
51382;SDS011;37475;43.358;1.248;2023-04-03T13:10:13;3.95;;;0.77;;
51382;SDS011;37475;43.358;1.248;2023-04-03T13:15:23;2.05;;;0.70;;
51382;SDS011;37475;43.358;1.248;2023-04-03T13:17:54;1.25;;;0.60;;
51382;SDS011;37475;43.358;1.248;2023-04-03T13:20:23;1.45;;;0.60;;
51382;SDS011;37475;43.358;1.248;2023-04-03T13:25:28;2.60;;;0.73;;
51382;SDS011;37475;43.358;1.248;2023-04-03T13:27:57;1.42;;;0.70;;
51382;SDS011;37475;43.358;1.248;2023-04-03T13:30:27;1.85;;;0.85;;
51382;SDS011;37475;43.358;1.248;2023-04-03T13:33:00;2.13;;;0.70;;
51382;SDS011;37475;43.358;1.248;2023-04-03T13:35:31;2.17;;;0.90;;
51382;SDS011;37475;43.358;1.248;2023-04-03T13:40:57;2.55;;;0.80;;
51382;SDS011;37475;43.358;1.248;2023-04-03T13:46:04;1.42;;;0.80;;
51382;SDS011;37475;43.358;1.248;2023-04-03T13:56:31;3.83;;;1.20;;
51382;SDS011;37475;43.358;1.248;2023-04-03T14:01:50;3.45;;;1.20;;
51382;SDS011;37475;43.358;1.248;2023-04-03T14:06:45;2.40;;;1.08;;
51382;SDS011;37475;43.358;1.248;2023-04-03T14:09:12;2.78;;;1.00;;
51382;SDS011;37475;43.358;1.248;2023-04-03T14:11:39;1.65;;;0.98;;
51382;SDS011;37475;43.358;1.248;2023-04-03T14:14:12;4.95;;;1.25;;
51382;SDS011;37475;43.358;1.248;2023-04-03T14:17:00;3.58;;;1.17;;
51382;SDS011;37475;43.358;1.248;2023-04-03T14:19:35;3.35;;;1.10;;
51382;SDS011;37475;43.358;1.248;2023-04-03T14:22:10;2.13;;;1.00;;
51382;SDS011;37475;43.358;1.248;2023-04-03T14:24:50;4.30;;;1.13;;
51382;SDS011;37475;43.358;1.248;2023-04-03T14:29:55;4.40;;;1.20;;
51382;SDS011;37475;43.358;1.248;2023-04-03T14:32:23;1.60;;;0.90;;
51382;SDS011;37475;43.358;1.248;2023-04-03T14:34:50;2.13;;;1.00;;
51382;SDS011;37475;43.358;1.248;2023-04-03T14:37:28;2.13;;;0.75;;
51382;SDS011;37475;43.358;1.248;2023-04-03T14:39:56;2.50;;;0.80;;
51382;SDS011;37475;43.358;1.248;2023-04-03T14:42:26;4.13;;;0.98;;
51382;SDS011;37475;43.358;1.248;2023-04-03T14:44:56;2.58;;;0.88;;
51382;SDS011;37475;43.358;1.248;2023-04-03T14:47:24;2.47;;;0.90;;
51382;SDS011;37475;43.358;1.248;2023-04-03T14:49:52;2.72;;;1.05;;
51382;SDS011;37475;43.358;1.248;2023-04-03T14:52:23;1.75;;;1.02;;
51382;SDS011;37475;43.358;1.248;2023-04-03T14:54:56;3.65;;;0.90;;
51382;SDS011;37475;43.358;1.248;2023-04-03T14:57:23;2.20;;;0.90;;
51382;SDS011;37475;43.358;1.248;2023-04-03T14:59:51;4.22;;;1.15;;
51382;SDS011;37475;43.358;1.248;2023-04-03T15:02:27;4.55;;;1.10;;
51382;SDS011;37475;43.358;1.248;2023-04-03T15:04:58;2.38;;;0.90;;
51382;SDS011;37475;43.358;1.248;2023-04-03T15:07:28;3.63;;;0.90;;
51382;SDS011;37475;43.358;1.248;2023-04-03T15:09:59;2.63;;;0.95;;
51382;SDS011;37475;43.358;1.248;2023-04-03T15:12:50;2.25;;;0.90;;
51382;SDS011;37475;43.358;1.248;2023-04-03T15:15:17;3.15;;;0.95;;
51382;SDS011;37475;43.358;1.248;2023-04-03T15:17:46;2.60;;;1.00;;
51382;SDS011;37475;43.358;1.248;2023-04-03T15:20:19;4.45;;;1.27;;
51382;SDS011;37475;43.358;1.248;2023-04-03T15:22:48;2.33;;;1.00;;
51382;SDS011;37475;43.358;1.248;2023-04-03T15:25:14;3.13;;;1.17;;
51382;SDS011;37475;43.358;1.248;2023-04-03T15:27:41;1.95;;;0.98;;
51382;SDS011;37475;43.358;1.248;2023-04-03T15:30:08;4.32;;;1.10;;
51382;SDS011;37475;43.358;1.248;2023-04-03T15:32:39;4.07;;;1.05;;
51382;SDS011;37475;43.358;1.248;2023-04-03T15:35:05;4.35;;;1.23;;
51382;SDS011;37475;43.358;1.248;2023-04-03T15:37:31;3.03;;;1.10;;
51382;SDS011;37475;43.358;1.248;2023-04-03T15:39:57;2.10;;;1.10;;
51382;SDS011;37475;43.358;1.248;2023-04-03T15:42:23;3.17;;;1.30;;
51382;SDS011;37475;43.358;1.248;2023-04-03T15:44:49;3.25;;;1.00;;
51382;SDS011;37475;43.358;1.248;2023-04-03T15:47:14;2.20;;;1.20;;
51382;SDS011;37475;43.358;1.248;2023-04-03T15:49:40;1.73;;;0.80;;
51382;SDS011;37475;43.358;1.248;2023-04-03T15:52:06;2.42;;;0.90;;
51382;SDS011;37475;43.358;1.248;2023-04-03T15:54:32;3.10;;;1.20;;
51382;SDS011;37475;43.358;1.248;2023-04-03T15:56:58;2.75;;;0.90;;
51382;SDS011;37475;43.358;1.248;2023-04-03T15:59:23;2.95;;;1.13;;
51382;SDS011;37475;43.358;1.248;2023-04-03T16:01:49;2.70;;;1.20;;
51382;SDS011;37475;43.358;1.248;2023-04-03T16:04:16;2.97;;;1.10;;
51382;SDS011;37475;43.358;1.248;2023-04-03T16:06:43;4.93;;;1.15;;
51382;SDS011;37475;43.358;1.248;2023-04-03T16:09:09;3.85;;;1.30;;
51382;SDS011;37475;43.358;1.248;2023-04-03T16:11:35;2.67;;;1.08;;
51382;SDS011;37475;43.358;1.248;2023-04-03T16:14:04;3.25;;;1.30;;
51382;SDS011;37475;43.358;1.248;2023-04-03T16:16:31;2.95;;;1.17;;
51382;SDS011;37475;43.358;1.248;2023-04-03T16:18:58;2.92;;;1.20;;
51382;SDS011;37475;43.358;1.248;2023-04-03T16:21:23;3.28;;;1.05;;
51382;SDS011;37475;43.358;1.248;2023-04-03T16:23:49;2.75;;;1.10;;
51382;SDS011;37475;43.358;1.248;2023-04-03T16:26:15;2.50;;;1.20;;
51382;SDS011;37475;43.358;1.248;2023-04-03T16:28:42;3.28;;;1.30;;
51382;SDS011;37475;43.358;1.248;2023-04-03T16:31:08;4.78;;;1.30;;
51382;SDS011;37475;43.358;1.248;2023-04-03T16:33:35;3.92;;;1.20;;
51382;SDS011;37475;43.358;1.248;2023-04-03T16:36:02;4.68;;;1.40;;
51382;SDS011;37475;43.358;1.248;2023-04-03T16:38:29;7.43;;;1.20;;
51382;SDS011;37475;43.358;1.248;2023-04-03T16:40:55;2.65;;;1.10;;
51382;SDS011;37475;43.358;1.248;2023-04-03T16:43:30;3.65;;;1.20;;
51382;SDS011;37475;43.358;1.248;2023-04-03T16:45:57;2.45;;;1.10;;
51382;SDS011;37475;43.358;1.248;2023-04-03T16:48:23;2.08;;;1.00;;
51382;SDS011;37475;43.358;1.248;2023-04-03T16:50:49;3.47;;;1.10;;
51382;SDS011;37475;43.358;1.248;2023-04-03T16:53:18;2.92;;;1.30;;
51382;SDS011;37475;43.358;1.248;2023-04-03T16:55:48;2.20;;;0.90;;
51382;SDS011;37475;43.358;1.248;2023-04-03T16:58:15;3.72;;;1.27;;
51382;SDS011;37475;43.358;1.248;2023-04-03T17:00:41;3.60;;;1.33;;
51382;SDS011;37475;43.358;1.248;2023-04-03T17:03:07;3.97;;;1.33;;
51382;SDS011;37475;43.358;1.248;2023-04-03T17:05:33;3.15;;;1.40;;
51382;SDS011;37475;43.358;1.248;2023-04-03T17:07:59;2.83;;;1.25;;
51382;SDS011;37475;43.358;1.248;2023-04-03T17:10:26;3.40;;;1.25;;